sensor_id;sensor_type;location;lat;lon;timestamp;P1;durP1;ratioP1;P2;durP2;ratioP2
40601;SDS011;26310;50.278;19.032;2023-02-28T00:02:59;8.33;;;3.07;;
40601;SDS011;26310;50.278;19.032;2023-02-28T00:08:02;8.00;;;3.93;;
40601;SDS011;26310;50.278;19.032;2023-02-28T00:13:05;7.70;;;4.17;;
40601;SDS011;26310;50.278;19.032;2023-02-28T00:18:08;3.70;;;3.07;;
40601;SDS011;26310;50.278;19.032;2023-02-28T00:23:11;10.53;;;4.83;;
40601;SDS011;26310;50.278;19.032;2023-02-28T00:28:14;3.17;;;2.87;;
40601;SDS011;26310;50.278;19.032;2023-02-28T05:36:36;9.77;;;4.40;;
40601;SDS011;26310;50.278;19.032;2023-02-28T05:41:51;9.67;;;4.77;;
40601;SDS011;26310;50.278;19.032;2023-02-28T05:46:55;5.27;;;4.77;;
40601;SDS011;26310;50.278;19.032;2023-02-28T05:52:03;8.10;;;4.77;;
40601;SDS011;26310;50.278;19.032;2023-02-28T05:57:07;6.70;;;4.47;;
40601;SDS011;26310;50.278;19.032;2023-02-28T06:02:26;8.13;;;5.43;;
40601;SDS011;26310;50.278;19.032;2023-02-28T06:07:34;6.60;;;4.30;;
40601;SDS011;26310;50.278;19.032;2023-02-28T06:12:50;5.20;;;4.03;;
40601;SDS011;26310;50.278;19.032;2023-02-28T06:17:54;10.10;;;6.33;;
40601;SDS011;26310;50.278;19.032;2023-02-28T06:23:02;6.60;;;4.07;;
40601;SDS011;26310;50.278;19.032;2023-02-28T06:28:09;15.90;;;6.27;;
40601;SDS011;26310;50.278;19.032;2023-02-28T06:33:12;8.80;;;6.60;;
40601;SDS011;26310;50.278;19.032;2023-02-28T06:38:21;7.60;;;4.43;;
40601;SDS011;26310;50.278;19.032;2023-02-28T06:43:25;9.10;;;4.90;;
40601;SDS011;26310;50.278;19.032;2023-02-28T06:48:32;4.90;;;4.40;;
40601;SDS011;26310;50.278;19.032;2023-02-28T06:53:37;8.03;;;4.67;;
40601;SDS011;26310;50.278;19.032;2023-02-28T06:58:45;8.60;;;6.53;;
40601;SDS011;26310;50.278;19.032;2023-02-28T07:03:51;8.70;;;5.47;;
40601;SDS011;26310;50.278;19.032;2023-02-28T07:08:55;13.97;;;6.37;;
40601;SDS011;26310;50.278;19.032;2023-02-28T07:14:02;12.43;;;6.10;;
40601;SDS011;26310;50.278;19.032;2023-02-28T07:19:06;9.73;;;6.10;;
40601;SDS011;26310;50.278;19.032;2023-02-28T07:24:11;13.03;;;6.60;;
40601;SDS011;26310;50.278;19.032;2023-02-28T07:29:18;7.80;;;5.07;;
40601;SDS011;26310;50.278;19.032;2023-02-28T07:34:24;7.93;;;4.80;;
40601;SDS011;26310;50.278;19.032;2023-02-28T07:39:31;6.40;;;4.77;;
40601;SDS011;26310;50.278;19.032;2023-02-28T07:44:35;8.87;;;4.97;;
40601;SDS011;26310;50.278;19.032;2023-02-28T07:49:45;9.60;;;6.03;;
40601;SDS011;26310;50.278;19.032;2023-02-28T07:54:54;6.30;;;4.27;;
40601;SDS011;26310;50.278;19.032;2023-02-28T08:00:00;7.73;;;4.93;;
40601;SDS011;26310;50.278;19.032;2023-02-28T08:05:12;5.40;;;4.13;;
40601;SDS011;26310;50.278;19.032;2023-02-28T08:10:24;8.10;;;4.93;;
40601;SDS011;26310;50.278;19.032;2023-02-28T08:15:28;6.57;;;4.80;;
40601;SDS011;26310;50.278;19.032;2023-02-28T08:20:32;6.27;;;3.63;;
40601;SDS011;26310;50.278;19.032;2023-02-28T08:25:37;5.53;;;4.37;;
40601;SDS011;26310;50.278;19.032;2023-02-28T08:30:41;4.43;;;3.33;;
40601;SDS011;26310;50.278;19.032;2023-02-28T08:35:47;12.13;;;3.00;;
40601;SDS011;26310;50.278;19.032;2023-02-28T08:40:56;5.23;;;3.33;;
40601;SDS011;26310;50.278;19.032;2023-02-28T08:46:05;3.80;;;2.70;;
40601;SDS011;26310;50.278;19.032;2023-02-28T08:51:12;3.83;;;3.47;;
40601;SDS011;26310;50.278;19.032;2023-02-28T08:56:23;5.90;;;4.27;;
40601;SDS011;26310;50.278;19.032;2023-02-28T09:01:29;7.20;;;3.70;;
40601;SDS011;26310;50.278;19.032;2023-02-28T09:06:34;5.27;;;3.07;;
40601;SDS011;26310;50.278;19.032;2023-02-28T09:11:38;5.50;;;4.27;;
40601;SDS011;26310;50.278;19.032;2023-02-28T09:16:44;4.93;;;4.40;;
40601;SDS011;26310;50.278;19.032;2023-02-28T09:21:50;4.87;;;4.40;;
40601;SDS011;26310;50.278;19.032;2023-02-28T09:26:55;7.50;;;4.30;;
40601;SDS011;26310;50.278;19.032;2023-02-28T09:32:10;5.13;;;3.33;;
40601;SDS011;26310;50.278;19.032;2023-02-28T09:37:14;5.63;;;3.77;;
40601;SDS011;26310;50.278;19.032;2023-02-28T09:42:21;6.13;;;4.23;;
40601;SDS011;26310;50.278;19.032;2023-02-28T09:47:34;6.93;;;4.50;;
40601;SDS011;26310;50.278;19.032;2023-02-28T09:52:45;10.17;;;4.10;;
40601;SDS011;26310;50.278;19.032;2023-02-28T09:57:55;11.43;;;3.87;;
40601;SDS011;26310;50.278;19.032;2023-02-28T10:08:34;5.87;;;4.00;;
40601;SDS011;26310;50.278;19.032;2023-02-28T10:19:06;7.73;;;4.20;;
40601;SDS011;26310;50.278;19.032;2023-02-28T10:24:28;7.07;;;4.97;;
40601;SDS011;26310;50.278;19.032;2023-02-28T10:29:35;5.93;;;4.40;;
40601;SDS011;26310;50.278;19.032;2023-02-28T10:34:43;7.97;;;4.40;;
40601;SDS011;26310;50.278;19.032;2023-02-28T10:39:48;8.60;;;4.90;;
40601;SDS011;26310;50.278;19.032;2023-02-28T10:45:06;6.67;;;5.00;;
40601;SDS011;26310;50.278;19.032;2023-02-28T10:50:27;9.97;;;5.73;;
40601;SDS011;26310;50.278;19.032;2023-02-28T10:55:36;9.67;;;5.10;;
40601;SDS011;26310;50.278;19.032;2023-02-28T11:00:43;9.57;;;5.43;;
40601;SDS011;26310;50.278;19.032;2023-02-28T11:05:51;12.30;;;5.73;;
40601;SDS011;26310;50.278;19.032;2023-02-28T11:10:56;8.93;;;5.03;;
40601;SDS011;26310;50.278;19.032;2023-02-28T11:16:04;7.07;;;5.57;;
40601;SDS011;26310;50.278;19.032;2023-02-28T11:21:15;6.57;;;4.07;;
40601;SDS011;26310;50.278;19.032;2023-02-28T11:26:38;8.57;;;5.20;;
40601;SDS011;26310;50.278;19.032;2023-02-28T11:32:10;8.60;;;4.87;;
40601;SDS011;26310;50.278;19.032;2023-02-28T11:37:14;11.47;;;5.50;;
40601;SDS011;26310;50.278;19.032;2023-02-28T11:42:35;8.83;;;4.67;;
40601;SDS011;26310;50.278;19.032;2023-02-28T11:48:04;6.23;;;4.70;;
40601;SDS011;26310;50.278;19.032;2023-02-28T12:10:00;6.93;;;5.53;;
40601;SDS011;26310;50.278;19.032;2023-02-28T12:20:43;9.87;;;6.20;;
40601;SDS011;26310;50.278;19.032;2023-02-28T12:31:20;9.93;;;5.23;;
40601;SDS011;26310;50.278;19.032;2023-02-28T12:36:29;10.90;;;5.67;;
40601;SDS011;26310;50.278;19.032;2023-02-28T12:46:48;7.80;;;5.73;;
40601;SDS011;26310;50.278;19.032;2023-02-28T12:51:53;7.13;;;5.07;;
40601;SDS011;26310;50.278;19.032;2023-02-28T13:02:47;10.17;;;6.63;;
40601;SDS011;26310;50.278;19.032;2023-02-28T13:13:23;6.40;;;4.77;;
40601;SDS011;26310;50.278;19.032;2023-02-28T13:18:39;8.50;;;4.97;;
40601;SDS011;26310;50.278;19.032;2023-02-28T13:34:18;8.97;;;6.97;;
40601;SDS011;26310;50.278;19.032;2023-02-28T13:50:47;12.63;;;6.27;;
40601;SDS011;26310;50.278;19.032;2023-02-28T14:00:54;12.17;;;6.27;;
40601;SDS011;26310;50.278;19.032;2023-02-28T14:11:29;14.87;;;7.10;;
40601;SDS011;26310;50.278;19.032;2023-02-28T14:16:36;11.20;;;6.83;;
40601;SDS011;26310;50.278;19.032;2023-02-28T14:33:16;11.87;;;7.30;;
40601;SDS011;26310;50.278;19.032;2023-02-28T14:43:57;7.60;;;5.73;;
40601;SDS011;26310;50.278;19.032;2023-02-28T14:49:03;12.03;;;5.73;;
40601;SDS011;26310;50.278;19.032;2023-02-28T14:54:07;10.57;;;6.30;;
40601;SDS011;26310;50.278;19.032;2023-02-28T14:59:29;8.77;;;5.67;;
40601;SDS011;26310;50.278;19.032;2023-02-28T15:04:36;9.17;;;5.57;;
40601;SDS011;26310;50.278;19.032;2023-02-28T15:09:39;10.43;;;6.50;;
40601;SDS011;26310;50.278;19.032;2023-02-28T15:14:51;13.03;;;5.87;;
40601;SDS011;26310;50.278;19.032;2023-02-28T15:19:56;7.80;;;5.47;;
40601;SDS011;26310;50.278;19.032;2023-02-28T15:25:04;10.00;;;5.40;;
40601;SDS011;26310;50.278;19.032;2023-02-28T15:30:15;10.33;;;6.17;;
40601;SDS011;26310;50.278;19.032;2023-02-28T15:35:26;8.37;;;5.50;;
40601;SDS011;26310;50.278;19.032;2023-02-28T15:40:32;8.10;;;4.87;;
40601;SDS011;26310;50.278;19.032;2023-02-28T15:45:46;8.00;;;5.13;;
40601;SDS011;26310;50.278;19.032;2023-02-28T15:50:52;7.57;;;4.93;;
40601;SDS011;26310;50.278;19.032;2023-02-28T15:56:04;7.10;;;3.67;;
40601;SDS011;26310;50.278;19.032;2023-02-28T16:01:16;9.90;;;4.40;;
40601;SDS011;26310;50.278;19.032;2023-02-28T16:11:45;8.57;;;4.70;;
40601;SDS011;26310;50.278;19.032;2023-02-28T16:16:53;6.37;;;4.67;;
40601;SDS011;26310;50.278;19.032;2023-02-28T16:22:03;7.53;;;5.33;;
40601;SDS011;26310;50.278;19.032;2023-02-28T16:27:14;7.13;;;5.10;;
40601;SDS011;26310;50.278;19.032;2023-02-28T16:32:20;5.63;;;4.60;;
40601;SDS011;26310;50.278;19.032;2023-02-28T16:37:26;9.77;;;6.40;;
40601;SDS011;26310;50.278;19.032;2023-02-28T16:42:30;8.07;;;4.80;;
40601;SDS011;26310;50.278;19.032;2023-02-28T16:47:34;11.90;;;5.97;;
40601;SDS011;26310;50.278;19.032;2023-02-28T16:52:40;10.03;;;6.47;;
40601;SDS011;26310;50.278;19.032;2023-02-28T16:57:47;11.80;;;7.47;;
40601;SDS011;26310;50.278;19.032;2023-02-28T17:02:55;12.13;;;7.70;;
40601;SDS011;26310;50.278;19.032;2023-02-28T17:08:08;11.70;;;7.17;;
40601;SDS011;26310;50.278;19.032;2023-02-28T17:13:11;16.90;;;8.63;;
40601;SDS011;26310;50.278;19.032;2023-02-28T17:18:18;12.73;;;7.73;;
40601;SDS011;26310;50.278;19.032;2023-02-28T17:23:21;6.83;;;5.77;;
40601;SDS011;26310;50.278;19.032;2023-02-28T17:28:24;11.07;;;6.90;;
40601;SDS011;26310;50.278;19.032;2023-02-28T17:33:27;9.37;;;6.53;;
40601;SDS011;26310;50.278;19.032;2023-02-28T17:38:30;12.10;;;6.27;;
40601;SDS011;26310;50.278;19.032;2023-02-28T17:43:33;19.33;;;7.73;;
40601;SDS011;26310;50.278;19.032;2023-02-28T17:48:36;10.50;;;6.90;;
40601;SDS011;26310;50.278;19.032;2023-02-28T17:53:40;12.43;;;8.13;;
40601;SDS011;26310;50.278;19.032;2023-02-28T17:58:43;13.10;;;6.63;;
40601;SDS011;26310;50.278;19.032;2023-02-28T18:03:47;9.37;;;7.00;;
40601;SDS011;26310;50.278;19.032;2023-02-28T18:08:54;9.67;;;5.97;;
40601;SDS011;26310;50.278;19.032;2023-02-28T18:13:57;13.87;;;8.10;;
40601;SDS011;26310;50.278;19.032;2023-02-28T18:19:01;11.20;;;7.60;;
40601;SDS011;26310;50.278;19.032;2023-02-28T18:24:04;16.47;;;7.57;;
40601;SDS011;26310;50.278;19.032;2023-02-28T18:29:08;23.00;;;7.50;;
40601;SDS011;26310;50.278;19.032;2023-02-28T18:34:17;11.23;;;7.70;;
40601;SDS011;26310;50.278;19.032;2023-02-28T18:39:24;16.23;;;9.20;;
40601;SDS011;26310;50.278;19.032;2023-02-28T18:44:28;14.03;;;8.77;;
40601;SDS011;26310;50.278;19.032;2023-02-28T18:49:34;16.60;;;9.43;;
40601;SDS011;26310;50.278;19.032;2023-02-28T18:54:38;18.57;;;10.00;;
40601;SDS011;26310;50.278;19.032;2023-02-28T18:59:42;21.80;;;11.13;;
40601;SDS011;26310;50.278;19.032;2023-02-28T19:04:46;25.27;;;11.20;;
40601;SDS011;26310;50.278;19.032;2023-02-28T19:09:51;24.00;;;11.63;;
40601;SDS011;26310;50.278;19.032;2023-02-28T19:14:58;25.27;;;13.47;;
40601;SDS011;26310;50.278;19.032;2023-02-28T19:20:04;28.27;;;11.73;;
40601;SDS011;26310;50.278;19.032;2023-02-28T19:25:12;27.47;;;13.83;;
40601;SDS011;26310;50.278;19.032;2023-02-28T19:30:17;23.30;;;13.03;;
40601;SDS011;26310;50.278;19.032;2023-02-28T19:35:24;23.37;;;12.43;;
40601;SDS011;26310;50.278;19.032;2023-02-28T19:40:28;18.17;;;9.87;;
40601;SDS011;26310;50.278;19.032;2023-02-28T19:45:53;28.93;;;11.37;;
40601;SDS011;26310;50.278;19.032;2023-02-28T19:51:04;11.83;;;7.73;;
40601;SDS011;26310;50.278;19.032;2023-02-28T19:56:10;13.33;;;8.93;;
40601;SDS011;26310;50.278;19.032;2023-02-28T20:01:18;14.10;;;8.43;;
40601;SDS011;26310;50.278;19.032;2023-02-28T20:06:22;14.57;;;8.87;;
40601;SDS011;26310;50.278;19.032;2023-02-28T20:11:29;17.70;;;8.90;;
40601;SDS011;26310;50.278;19.032;2023-02-28T20:16:33;23.60;;;12.73;;
40601;SDS011;26310;50.278;19.032;2023-02-28T20:21:40;18.97;;;10.73;;
40601;SDS011;26310;50.278;19.032;2023-02-28T20:26:49;19.13;;;12.47;;
40601;SDS011;26310;50.278;19.032;2023-02-28T20:32:00;22.47;;;14.40;;
40601;SDS011;26310;50.278;19.032;2023-02-28T20:37:06;31.50;;;15.70;;
40601;SDS011;26310;50.278;19.032;2023-02-28T20:42:12;37.37;;;18.43;;
40601;SDS011;26310;50.278;19.032;2023-02-28T20:47:16;25.93;;;13.93;;
40601;SDS011;26310;50.278;19.032;2023-02-28T20:52:28;36.80;;;18.73;;
40601;SDS011;26310;50.278;19.032;2023-02-28T20:57:37;33.73;;;17.37;;
40601;SDS011;26310;50.278;19.032;2023-02-28T21:02:41;34.20;;;16.77;;
40601;SDS011;26310;50.278;19.032;2023-02-28T21:07:50;34.80;;;18.63;;
40601;SDS011;26310;50.278;19.032;2023-02-28T21:12:57;31.47;;;19.07;;
40601;SDS011;26310;50.278;19.032;2023-02-28T21:18:02;34.43;;;16.03;;
40601;SDS011;26310;50.278;19.032;2023-02-28T21:23:14;25.60;;;18.40;;
40601;SDS011;26310;50.278;19.032;2023-02-28T21:28:18;24.70;;;15.67;;
40601;SDS011;26310;50.278;19.032;2023-02-28T21:33:24;24.60;;;15.47;;
40601;SDS011;26310;50.278;19.032;2023-02-28T21:38:29;27.30;;;16.73;;
40601;SDS011;26310;50.278;19.032;2023-02-28T21:43:33;21.63;;;13.40;;
40601;SDS011;26310;50.278;19.032;2023-02-28T21:48:38;27.73;;;15.40;;
40601;SDS011;26310;50.278;19.032;2023-02-28T21:53:42;29.87;;;15.60;;
40601;SDS011;26310;50.278;19.032;2023-02-28T21:58:49;32.50;;;18.53;;
40601;SDS011;26310;50.278;19.032;2023-02-28T22:04:03;31.70;;;17.93;;
40601;SDS011;26310;50.278;19.032;2023-02-28T22:09:10;31.27;;;17.10;;
40601;SDS011;26310;50.278;19.032;2023-02-28T22:14:15;33.53;;;15.30;;
40601;SDS011;26310;50.278;19.032;2023-02-28T22:19:20;35.57;;;17.30;;
40601;SDS011;26310;50.278;19.032;2023-02-28T22:24:27;42.43;;;18.37;;
40601;SDS011;26310;50.278;19.032;2023-02-28T22:29:33;35.73;;;18.97;;
40601;SDS011;26310;50.278;19.032;2023-02-28T22:34:38;50.10;;;23.63;;
40601;SDS011;26310;50.278;19.032;2023-02-28T22:39:42;42.33;;;21.53;;
40601;SDS011;26310;50.278;19.032;2023-02-28T22:44:48;41.20;;;21.53;;
40601;SDS011;26310;50.278;19.032;2023-02-28T22:49:53;48.93;;;21.47;;
40601;SDS011;26310;50.278;19.032;2023-02-28T22:54:58;47.33;;;24.87;;
40601;SDS011;26310;50.278;19.032;2023-02-28T23:00:04;49.20;;;25.80;;
40601;SDS011;26310;50.278;19.032;2023-02-28T23:05:13;49.57;;;26.03;;
40601;SDS011;26310;50.278;19.032;2023-02-28T23:10:19;57.87;;;23.87;;
40601;SDS011;26310;50.278;19.032;2023-02-28T23:15:24;65.20;;;26.43;;
40601;SDS011;26310;50.278;19.032;2023-02-28T23:20:29;38.83;;;22.87;;
40601;SDS011;26310;50.278;19.032;2023-02-28T23:25:34;47.13;;;22.87;;
40601;SDS011;26310;50.278;19.032;2023-02-28T23:30:45;43.67;;;20.10;;
40601;SDS011;26310;50.278;19.032;2023-02-28T23:35:49;41.00;;;20.77;;
40601;SDS011;26310;50.278;19.032;2023-02-28T23:40:56;54.97;;;20.70;;
40601;SDS011;26310;50.278;19.032;2023-02-28T23:46:00;39.10;;;21.67;;
40601;SDS011;26310;50.278;19.032;2023-02-28T23:51:05;49.93;;;20.70;;
40601;SDS011;26310;50.278;19.032;2023-02-28T23:56:15;32.93;;;16.13;;
